Tiempo atmosférico en la estación meteorológica de San Pedro Manrique, Soria (1096 m.)



Fecha
DESCASC
Temp. máxima en grados centígrados (hora)
DESCASC
Temp. mínima en grados centígrados (hora)
DESCASC
Temp. media en grados centígrados
DESCASC
Racha de viento máxima en m/sg (hora)
DESCASC
Velocidad máxima media en intervalos de 10 minutos(hora)
DESCASC
Precipitaciones diarias en mm
DESCASC
Precipitaciones de 00:00 a 06:00 en mm
DESCASC
Precipitaciones de 06:00 a 12:00 en mm
DESCASC
Precipitaciones de 12:00 a 18:00 en mm
DESCASC
Precipitaciones de 18:00 a 24:00 en mm
DESCASC
19-09-2019 22.5 (14:10) 8.4 (07:40) 15.4 7.78 (16:40) 4.72 (16:40) 4 0 0 4 0
18-09-2019 22.4 (14:50) 9.5 (08:30) 15.9 12.5 (15:30) 7.78 (15:40) 8.4 0.6 0 7.8 0
17-09-2019 24.4 (14:40) 12.2 (00:00) 18.3 6.67 (23:59) 3.61 (16:10) 0 0 0 0 0
16-09-2019 21.7 (15:40) 13.7 (00:00) 17.7 6.11 (16:50) 3.61 (15:50) 3 3 0 0 0
15-09-2019 20.4 (11:20) 11.8 (00:00) 16.1 9.44 (11:20) 5 (11:20) 7.8 0 0 5 2.8
14-09-2019 22 (15:30) 10 (00:00) 16 11.67 (15:30) 6.11 (15:10) 0 0 0 0 0
13-09-2019 21.2 (14:00) 6.8 (00:00) 14 11.11 (14:40) 5.83 (15:50) 0 0 0 0 0
12-09-2019 23.3 (17:50) 4.5 (00:00) 13.9 8.89 (15:50) 4.72 (14:40) 0 0 0 0 0
11-09-2019 17.1 (16:20) 9.3 (00:00) 13.2 20.28 (05:30) 8.33 (05:00) 0 0 0 0 0
10-09-2019 12.4 (00:00) 7.1 (07:30) 9.7 17.22 (21:00) 9.72 (23:20) 0 0 0 0 0
09-09-2019 24.9 (14:50) 2.5 (08:00) 13.7 13.06 (14:30) 6.39 (14:00) 0 0 0 0 0
08-09-2019 19.6 (17:00) 3.4 (00:00) 11.5 10.28 (15:00) 5 (14:50) 0 0 0 0 0
07-09-2019 19 (17:40) 4.4 (00:00) 11.7 8.89 (15:00) 4.72 (12:50) 0 0 0 0 0
06-09-2019 17.4 (16:40) 8 (00:00) 12.7 10.83 (16:50) 5.56 (18:10) 0 0 0 0 0
05-09-2019 16.4 (16:40) 9.3 (00:00) 12.8 13.89 (15:10) 7.22 (15:10) 0.2 0 0.2 0 0
04-09-2019 24.4 (14:20) 5.3 (00:00) 14.8 9.72 (16:40) 5.56 (17:00) 0 0 0 0 0
03-09-2019 25.2 (16:10) 3.6 (00:00) 14.4 6.67 (17:30) 3.89 (02:20) 0 0 0 0 0
02-09-2019 19.8 (15:50) 10.2 (00:00) 15 9.44 (19:20) 4.72 (19:10) 0 0 0 0 0
01-09-2019 19.9 (13:00) 12.1 (00:00) 16 8.33 (22:00) 4.72 (15:00) 0 0 0 0 0
31-08-2019 29.6 (13:40) 11.2 (00:00) 20.4 11.11 (16:10) 6.11 (16:00) 0 0 0 0 0
30-08-2019 29.9 (14:40) 10.3 (00:00) 20.1 10.28 (15:00) 5.28 (15:00) 0 0 0 0 0
29-08-2019 29.9 (15:30) 10.4 (00:00) 20.1 9.44 (16:10) 5 (17:40) 0.4 0 0 0.4 0
28-08-2019 26.1 (14:40) 8.5 (00:00) 17.3 6.39 (16:00) 3.89 (16:00) 0 0 0 0 0
27-08-2019 22.6 (16:00) 11.3 (00:00) 17 8.33 (01:30) 4.72 (01:30) 0.6 0.6 0 0 0
26-08-2019 26.6 (15:50) 11.8 (00:00) 19.2 12.22 (21:20) 8.33 (21:20) 1.8 0 0 0 1.8
25-08-2019 29.9 (14:40) 8.9 (00:00) 19.4 10.83 (16:50) 6.11 (18:30) 0 0 0 0 0
24-08-2019 28.8 (13:50) 8.3 (00:00) 18.5 10 (17:00) 5.28 (15:50) 0 0 0 0 0
23-08-2019 28.7 (15:00) 5.7 (00:00) 17.2 10.28 (14:00) 5.83 (17:20) 0 0 0 0 0
22-08-2019 25.8 (16:40) 6 (00:00) 15.9 7.5 (17:40) 3.89 (15:40) 0 0 0 0 0
21-08-2019 23.3 (13:10) 8.1 (00:00) 15.7 7.5 (14:40) 4.72 (14:40) 0 0 0 0 0

Gráficas

Temp. máximas Temp. mínimas Temp. medias Precipitaciones Rachas de viento máximas Velocidades máximas media en intervalos de 10 minutos

Datos horarios

Fecha y hora oficial Temperatura (ºC) Velocidad del viento (km/h) Dirección del viento Racha (km/h) Dirección de racha Precipitación (mm) Presión (hPa) Tendencia (hPa) Humedad (%)
2019-09-19 23:00:00 14 0 Calma 5 Sur 0 -- -- 86
2019-09-19 22:00:00 15 0 Calma 4 Este 0 -- -- 85
2019-09-19 21:00:00 16.4 2 Norte 5 Norte 0 -- -- 82
2019-09-19 20:00:00 17.7 4 Nordeste 12 Nordeste 0 -- -- 78
2019-09-19 19:00:00 18.7 6 Nordeste 12 Nordeste 0 -- -- 73
2019-09-19 18:00:00 17.8 6 Nordeste 22 Nordeste 4 -- -- 77
2019-09-19 17:00:00 19.2 10 Norte 28 Norte 0 -- -- 68
2019-09-19 16:00:00 20.8 12 Nordeste 25 Nordeste 0 -- -- 62
2019-09-19 15:00:00 20.2 11 Nordeste 23 Norte 0 -- -- 65
2019-09-19 14:00:00 21.9 9 Sudeste 21 Sudeste 0 -- -- 58
2019-09-19 13:00:00 20.9 9 Nordeste 17 Este 0 -- -- 61
2019-09-19 12:00:00 19.7 6 Este 13 Este 0 -- -- 63
2019-09-19 11:00:00 16 0 Calma 4 Sur 0 -- -- 79
2019-09-19 10:00:00 11.7 0 Calma 3 Sur 0 -- -- 91
2019-09-19 09:00:00 8.6 0 Calma 4 Sudeste 0 -- -- 90
2019-09-19 08:00:00 8.5 0 Calma -- -- 0 -- -- 90
2019-09-19 07:00:00 8.8 0 Calma -- -- 0 -- -- 90
2019-09-19 06:00:00 8.9 0 Calma -- -- 0 -- -- 89
2019-09-19 05:00:00 9.3 0 Calma 5 Sur 0 -- -- 89
2019-09-19 04:00:00 9.9 0 Calma 5 Sur 0 -- -- 89
2019-09-19 03:00:00 10.6 0 Calma 3 Este 0 -- -- 88
2019-09-19 02:00:00 11 0 Calma 3 Sur 0 -- -- 87
2019-09-19 01:00:00 11.7 3 Sur 9 Sur 0 -- -- 86
2019-09-19 00:00:00 12.8 0 Calma -- -- 0 -- -- 86
2019-09-18 23:00:00 13.6 0 Calma -- -- 0 -- -- 86
2019-09-18 22:00:00 14.1 0 Calma -- -- 0 -- -- 84
2019-09-18 21:00:00 14.6 0 Calma 8 Norte 0 -- -- 83
2019-09-18 20:00:00 16.3 3 Norte 9 Norte 0 -- -- 76
2019-09-18 19:00:00 17.4 3 Noroeste 18 Oeste 0 -- -- 72
2019-09-18 18:00:00 16.6 11 Oeste 16 Oeste 0 -- -- 68
2019-09-18 17:00:00 14.8 2 Sudeste 18 Sudoeste 5.2 -- -- 79
2019-09-18 16:00:00 14.5 22 Noroeste 45 Noroeste 2.6 -- -- 78
2019-09-18 15:00:00 22.3 10 Sudeste 22 Sudeste 0 -- -- 53
2019-09-18 14:00:00 20.4 10 Sudeste 17 Sudeste 0 -- -- 57
2019-09-18 13:00:00 21.3 9 Este 18 Sudeste 0 -- -- 50
2019-09-18 12:00:00 20.7 5 Sur 15 Sur 0 -- -- 52
2019-09-18 11:00:00 17.9 3 Noroeste 6 Noroeste 0 -- -- 60
2019-09-18 10:00:00 13.2 0 Calma 4 Sur 0 -- -- 79
2019-09-18 09:00:00 10.1 0 Calma 3 Sudoeste 0 -- -- 87
2019-09-18 08:00:00 9.8 0 Calma 6 Sudeste 0 -- -- 87
2019-09-18 07:00:00 10.6 3 Sur 5 Sur 0 -- -- 85
2019-09-18 06:00:00 11.8 0 Calma 5 Sur 0 -- -- 85
2019-09-18 05:00:00 13 0 Calma 10 Sur 0 -- -- 83
2019-09-18 04:00:00 13.2 4 Sudeste 12 Sudoeste 0 -- -- 81
2019-09-18 03:00:00 14.1 5 Sudoeste 24 Oeste 0 -- -- 76
2019-09-18 02:00:00 14.5 5 Noroeste 19 Sudoeste 0.4 -- -- 80
2019-09-18 01:00:00 15.6 8 Sur 39 Sudoeste 0.2 -- -- 74
2019-09-18 00:00:00 15.8 10 Sudoeste 24 Sudoeste 0 -- -- 74
2019-09-17 23:00:00 15.6 2 Sudoeste 7 Sur 0 -- -- 81
2019-09-17 22:00:00 16.7 2 Sudoeste 12 Noroeste 0 -- -- 77
2019-09-17 21:00:00 18.4 2 Este 14 Oeste 0 -- -- 70
2019-09-15 18:00:00 -- -- -- -- -- -- -- -- --
2019-09-15 17:00:00 17 13 Nordeste 28 Nordeste 0 -- -- 65
2019-09-15 16:00:00 16.8 5 Norte 15 Nordeste 0 -- -- 75
2019-09-15 15:00:00 13.4 6 Norte 13 Noroeste 0.4 -- -- 85
2019-09-15 14:00:00 14.1 15 Sudoeste 24 Sudoeste 0.8 -- -- 81
2019-09-15 13:00:00 15.3 9 Oeste 33 Sur 3.8 -- -- 73
2019-09-15 12:00:00 19.6 12 Nordeste 34 Sudeste 0 -- -- 45
2019-09-15 11:00:00 19.9 11 Nordeste 25 Este 0 -- -- 39
2019-09-15 10:00:00 16.7 4 Nordeste 9 Nordeste 0 -- -- 54
2019-09-15 09:00:00 15.5 6 Norte 17 Nordeste 0 -- -- 63
2019-09-15 08:00:00 15.2 6 Nordeste 13 Norte 0 -- -- 63
2019-09-15 07:00:00 15.1 5 Nordeste 16 Nordeste 0 -- -- 63
2019-09-15 06:00:00 12.7 2 Nordeste 12 Sur 0 -- -- 69
2019-09-15 05:00:00 11.8 0 Calma 4 Sudoeste 0 -- -- 71
2019-09-15 04:00:00 12.3 0 Calma 6 Sur 0 -- -- 69
2019-09-15 03:00:00 13.1 3 Sur 10 Nordeste 0 -- -- 67
2019-09-15 02:00:00 13.9 3 Sudeste 9 Nordeste 0 -- -- 65
2019-09-15 01:00:00 16.1 6 Nordeste 17 Nordeste 0 -- -- 59
2019-09-15 00:00:00 17 7 Nordeste 22 Este 0 -- -- 55
2019-09-14 23:00:00 15.9 3 Nordeste 14 Nordeste 0 -- -- 58
2019-09-14 22:00:00 17.2 4 Nordeste 8 Nordeste 0 -- -- 53
2019-09-14 21:00:00 18 0 Calma 19 Este 0 -- -- 52
2019-09-14 20:00:00 19.1 6 Este 26 Este 0 -- -- 50
2019-09-14 19:00:00 20 7 Nordeste 29 Nordeste 0 -- -- 46
2019-09-14 18:00:00 20.7 13 Nordeste 31 Nordeste 0 -- -- 43
2019-09-14 17:00:00 21.3 15 Nordeste 39 Este 0 -- -- 42
2019-09-14 16:00:00 21.7 22 Este 42 Este 0 -- -- 43
2019-09-14 15:00:00 21.4 16 Este 36 Este 0 -- -- 43
2019-09-14 14:00:00 19.7 21 Nordeste 32 Nordeste 0 -- -- 52
2019-09-14 13:00:00 19.4 15 Nordeste 33 Nordeste 0 -- -- 53
2019-09-14 12:00:00 19.7 9 Nordeste 23 Nordeste 0 -- -- 49
2019-09-14 11:00:00 17.7 12 Este 22 Nordeste 0 -- -- 56
2019-09-14 10:00:00 13 0 Calma 6 Sudeste 0 -- -- 86
2019-09-14 09:00:00 10.8 0 Calma 5 Sudoeste 0 -- -- 89
2019-09-14 08:00:00 10.2 0 Calma 5 Sur 0 -- -- 87
2019-09-14 07:00:00 11.6 3 Sur 6 Sur 0 -- -- 86
2019-09-14 06:00:00 -- -- -- -- -- -- -- -- --
2019-09-14 05:00:00 13.2 0 Calma 9 Nordeste 0 -- -- 83
2019-09-14 04:00:00 13.9 5 Nordeste 10 Norte 0 -- -- 81
2019-09-14 03:00:00 13.8 0 Calma 9 Este 0 -- -- 79
2019-09-14 02:00:00 12.7 3 Norte 8 Norte 0 -- -- 82
2019-09-14 01:00:00 11.9 2 Sudoeste 7 Sudeste 0 -- -- 84
2019-09-14 00:00:00 12.1 0 Calma 8 Sur 0 -- -- 83
2019-09-13 23:00:00 12 0 Calma 6 Sur 0 -- -- 82
2019-09-13 22:00:00 13.4 0 Calma 8 Sudoeste 0 -- -- 78
2019-09-13 21:00:00 15.1 3 Sudoeste 6 Sur 0 -- -- 72
2019-09-13 20:00:00 16.1 2 Este 12 Nordeste 0 -- -- 66
2019-09-13 19:00:00 16.7 5 Nordeste 15 Sudeste 0 -- -- 63
2019-09-13 18:00:00 16 5 Nordeste 15 Nordeste 0 -- -- 69
2019-09-13 17:00:00 15.9 5 Nordeste 26 Sudeste 0 -- -- 66
2019-09-13 16:00:00 17.7 15 Este 33 Este 0 -- -- 54
2019-09-13 15:00:00 19.2 18 Este 40 Este 0 -- -- 45
2019-09-13 14:00:00 21.2 16 Este 37 Nordeste 0 -- -- 39
2019-09-13 13:00:00 20.3 14 Nordeste 28 Nordeste 0 -- -- 41
2019-09-13 12:00:00 20.5 8 Nordeste 26 Este 0 -- -- 43
2019-09-13 11:00:00 18.9 13 Nordeste 25 Nordeste 0 -- -- 52
2019-09-13 10:00:00 11.8 3 Sudeste 5 Sudeste 0 -- -- 74
2019-09-13 09:00:00 7.8 2 Sur 6 Sur 0 -- -- 83
2019-09-13 08:00:00 6.9 0 Calma 2 Sur 0 -- -- 82
2019-09-13 07:00:00 7.1 0 Calma 6 Sur 0 -- -- 82
2019-09-13 06:00:00 7.5 2 Oeste 4 Noroeste 0 -- -- 81
2019-09-13 05:00:00 7.8 0 Calma 8 Sudoeste 0 -- -- 79
2019-09-13 04:00:00 8.1 0 Calma 6 Noroeste 0 -- -- 77
2019-09-13 03:00:00 8.4 3 Sudeste 6 Sur 0 -- -- 75
2019-09-13 02:00:00 9.1 0 Calma 9 Sur 0 -- -- 71
2019-09-13 01:00:00 10.1 0 Calma 4 Sudeste 0 -- -- 67
2019-09-13 00:00:00 11.5 0 Calma 6 Sudoeste 0 -- -- 64
2019-09-12 23:00:00 12.8 0 Calma 4 Este 0 -- -- 59
2019-09-12 22:00:00 15.2 3 Sur 8 Norte 0 -- -- 52
2019-09-12 21:00:00 18.5 2 Este 12 Nordeste 0 -- -- 45
2019-09-12 20:00:00 20.9 7 Nordeste 19 Nordeste 0 -- -- 38
2019-09-12 19:00:00 22.3 12 Nordeste 22 Nordeste 0 -- -- 35
2019-09-12 18:00:00 23.3 9 Nordeste 18 Nordeste 0 -- -- 32
2019-09-12 17:00:00 22.6 11 Nordeste 26 Nordeste 0 -- -- 34
2019-09-12 16:00:00 22 15 Nordeste 32 Nordeste 0 -- -- 38
2019-09-12 15:00:00 22 12 Nordeste 25 Norte 0 -- -- 41
2019-09-12 14:00:00 21.2 14 Nordeste 26 Nordeste 0 -- -- 43
2019-09-12 13:00:00 22 10 Sudeste 24 Sudeste 0 -- -- 42
2019-09-12 12:00:00 19.4 4 Nordeste 12 Nordeste 0 -- -- 48
2019-09-12 11:00:00 15.4 0 Calma 5 Sudeste 0 -- -- 60
2019-09-12 10:00:00 10.8 0 Calma 5 Este 0 -- -- 75
2019-09-12 09:00:00 5.7 0 Calma 5 Sur 0 -- -- 88
2019-09-12 08:00:00 4.7 0 Calma 3 Noroeste 0 -- -- 87
2019-09-12 07:00:00 5 0 Calma 5 Sur 0 -- -- 86
2019-09-12 06:00:00 5.4 0 Calma 5 Sur 0 -- -- 85
2019-09-12 05:00:00 6.1 0 Calma 4 Noroeste 0 -- -- 84
2019-09-12 04:00:00 6.8 0 Calma 5 Sudoeste 0 -- -- 82
2019-09-12 03:00:00 7.7 0 Calma 6 Oeste 0 -- -- 80
2019-09-12 02:00:00 8.9 2 Sudoeste 6 Sudeste 0 -- -- 77
2019-09-12 01:00:00 9.7 2 Sudoeste 6 Sudoeste 0 -- -- 75
2019-09-12 00:00:00 10.7 2 Sur 9 Norte 0 -- -- 72
2019-09-11 23:00:00 11.7 5 Norte 29 Noroeste 0 -- -- 68
2019-09-11 22:00:00 12.2 6 Norte 15 Nordeste 0 -- -- 66
2019-09-11 21:00:00 13 2 Norte 27 Norte 0 -- -- 63
2019-09-11 20:00:00 14.2 14 Norte 36 Norte 0 -- -- 58
2019-09-11 19:00:00 15.8 15 Norte 38 Noroeste 0 -- -- 55
2019-09-11 18:00:00 16.6 20 Norte 41 Noroeste 0 -- -- 52
2019-09-11 17:00:00 16.6 23 Noroeste 45 Noroeste 0 -- -- 51
2019-09-11 16:00:00 16.6 19 Noroeste 41 Norte 0 -- -- 50
2019-09-11 15:00:00 16.1 21 Norte 43 Nordeste 0 -- -- 51
2019-09-11 14:00:00 15.8 18 Norte 48 Norte 0 -- -- 52
2019-09-11 13:00:00 14.7 24 Norte 48 Norte 0 -- -- 56
2019-09-11 12:00:00 13.9 21 Norte 48 Noroeste 0 -- -- 58
2019-09-11 11:00:00 13.1 19 Norte 47 Norte 0 -- -- 61
2019-09-11 10:00:00 11.9 26 Norte 50 Noroeste 0 -- -- 64
2019-09-11 09:00:00 11 22 Norte 51 Noroeste 0 -- -- 71
2019-09-11 08:00:00 10.5 19 Norte 53 Norte 0 -- -- 74
2019-09-11 07:00:00 10.6 19 Noroeste 44 Norte 0 -- -- 76
2019-09-11 06:00:00 10.5 12 Norte 73 Nordeste 0 -- -- 76
2019-09-11 05:00:00 10.5 30 Norte 62 Norte 0 -- -- 74
2019-09-11 04:00:00 10 22 Norte 49 Noroeste 0 -- -- 76
2019-09-11 03:00:00 9.6 24 Norte 53 Noroeste 0 -- -- 77
2019-09-11 02:00:00 9.4 18 Norte 55 Noroeste 0 -- -- 75
2019-09-11 01:00:00 9.3 23 Noroeste 56 Noroeste 0 -- -- 73
2019-09-11 00:00:00 9.5 32 Noroeste 59 Norte 0 -- -- 72
2019-09-10 23:00:00 9.4 33 Noroeste 62 Noroeste 0 -- -- 71
2019-09-10 22:00:00 9.4 31 Noroeste 57 Noroeste 0 -- -- 69
2019-09-10 21:00:00 9.3 33 Noroeste 62 Noroeste 0 -- -- 75
2019-09-10 20:00:00 9.6 21 Noroeste 48 Noroeste 0 -- -- 71
2019-09-10 19:00:00 9.9 16 Norte 55 Noroeste 0 -- -- 75
2019-09-10 18:00:00 9.5 15 Noroeste 46 Noroeste 0 -- -- 84
2019-09-10 17:00:00 10 20 Noroeste 36 Noroeste 0 -- -- 76
2019-09-10 16:00:00 10 27 Noroeste 60 Noroeste 0 -- -- 70
2019-09-10 15:00:00 11.9 27 Noroeste 54 Noroeste 0 -- -- 57
2019-09-10 14:00:00 11.8 24 Noroeste 57 Noroeste 0 -- -- 58
2019-09-10 13:00:00 10.3 21 Noroeste 48 Noroeste 0 -- -- 63
2019-09-10 12:00:00 9.9 26 Noroeste 50 Noroeste 0 -- -- 64
2019-09-10 11:00:00 8.6 26 Noroeste 49 Noroeste 0 -- -- 69
2019-09-10 10:00:00 8.2 21 Noroeste 37 Noroeste 0 -- -- 68
2019-09-10 09:00:00 7.5 21 Noroeste 50 Noroeste 0 -- -- 69
2019-09-10 08:00:00 7.1 24 Noroeste 51 Noroeste 0 -- -- 70
2019-09-10 07:00:00 7.2 23 Noroeste 37 Noroeste 0 -- -- 76
2019-09-10 06:00:00 7.6 8 Noroeste 37 Noroeste 0 -- -- 72
2019-09-10 05:00:00 7.8 23 Noroeste 43 Noroeste 0 -- -- 79
2019-09-10 04:00:00 10.4 8 Norte 30 Noroeste 0 -- -- 72
2019-09-10 03:00:00 11.6 3 Sudeste 18 Oeste 0 -- -- 66
2019-09-10 02:00:00 12.2 5 Norte 18 Noroeste 0 -- -- 66
2019-09-10 01:00:00 12.1 3 Norte 21 Nordeste 0 -- -- 70
2019-09-10 00:00:00 12.4 9 Nordeste 24 Nordeste 0 -- -- 69
2019-09-09 23:00:00 13.4 7 Nordeste 15 Norte 0 -- -- 66
2019-09-09 22:00:00 14.3 11 Nordeste 18 Nordeste 0 -- -- 63
2019-09-09 21:00:00 16.2 5 Este 14 Nordeste 0 -- -- 50
2019-09-09 20:00:00 17.4 9 Nordeste 18 Nordeste 0 -- -- 46
2019-09-09 19:00:00 18.2 9 Nordeste 24 Nordeste 0 -- -- 46
2019-09-09 18:00:00 19 12 Nordeste 28 Norte 0 -- -- 43
2019-09-09 17:00:00 20.2 17 Nordeste 29 Nordeste 0 -- -- 41
2019-09-09 16:00:00 21.3 12 Norte 25 Nordeste 0 -- -- 40
2019-09-09 15:00:00 22.5 13 Norte 47 Oeste 0 -- -- 38
2019-09-09 14:00:00 23.5 23 Sudoeste 39 Sudoeste 0 -- -- 31
2019-09-09 13:00:00 21.8 19 Sudoeste 37 Sudoeste 0 -- -- 36
2019-09-09 12:00:00 21.1 18 Sur 30 Sur 0 -- -- 38
2019-09-09 11:00:00 19.5 8 Sur 20 Sur 0 -- -- 42
2019-09-09 10:00:00 11.2 0 Calma 6 Sudeste 0 -- -- 71
2019-09-09 09:00:00 4.8 0 Calma 4 Sudoeste 0 -- -- 86
2019-09-09 08:00:00 2.5 2 Sur 3 Sudeste 0 -- -- 85
2019-09-09 07:00:00 3 0 Calma 4 Noroeste 0 -- -- 86
2019-09-09 06:00:00 2.9 3 Sur 5 Oeste 0 -- -- 85
2019-09-09 05:00:00 3.6 4 Sur 7 Sur 0 -- -- 84
2019-09-09 04:00:00 4.3 2 Sudoeste 4 Oeste 0 -- -- 84
2019-09-09 03:00:00 5.1 0 Calma 4 Sudoeste 0 -- -- 82
2019-09-09 02:00:00 5.9 0 Calma 4 Sudoeste 0 -- -- 80
2019-09-09 01:00:00 7.6 0 Calma 2 Sur 0 -- -- 77
2019-09-09 00:00:00 9 0 Calma 4 Sur 0 -- -- 72
2019-09-08 23:00:00 10.6 0 Calma 6 Sudeste 0 -- -- 68
2019-09-08 22:00:00 13.1 0 Calma 15 Norte 0 -- -- 61
2019-09-08 21:00:00 14.8 8 Noroeste 24 Norte 0 -- -- 56
2019-09-08 20:00:00 16.4 9 Norte 28 Norte 0 -- -- 52
2019-09-08 19:00:00 18 13 Norte 30 Nordeste 0 -- -- 51
2019-09-08 18:00:00 19 15 Nordeste 27 Nordeste 0 -- -- 50
2019-09-08 17:00:00 19.6 12 Norte 26 Norte 0 -- -- 49
2019-09-08 16:00:00 19 15 Norte 30 Norte 0 -- -- 50
2019-09-08 15:00:00 18.5 17 Nordeste 37 Nordeste 0 -- -- 52
2019-09-08 14:00:00 18.6 12 Norte 26 Nordeste 0 -- -- 51
2019-09-08 13:00:00 17.7 15 Nordeste 27 Nordeste 0 -- -- 52
2019-09-08 12:00:00 16.3 14 Nordeste 27 Nordeste 0 -- -- 58
2019-09-08 11:00:00 15.3 6 Nordeste 17 Nordeste 0 -- -- 61
2019-09-08 10:00:00 10.5 3 Sudeste 5 Sur 0 -- -- 77
2019-09-08 09:00:00 4.9 0 Calma 4 Sudeste 0 -- -- 88
2019-09-08 08:00:00 3.4 2 Sudeste 4 Sudeste 0 -- -- 86
2019-09-08 07:00:00 4 2 Sur 3 Sur 0 -- -- 86
2019-09-08 06:00:00 4.6 0 Calma 4 Sur 0 -- -- 84
2019-09-08 05:00:00 5 0 Calma 4 Sur 0 -- -- 84
2019-09-08 04:00:00 5.7 0 Calma 6 Sudeste 0 -- -- 83
2019-09-08 03:00:00 6.5 0 Calma 9 Sudeste 0 -- -- 82
2019-09-08 02:00:00 7.7 0 Calma 4 Oeste 0 -- -- 77
2019-09-08 01:00:00 8.8 0 Calma 8 Noroeste 0 -- -- 74
2019-09-08 00:00:00 10.4 0 Calma 4 Oeste 0 -- -- 70
2019-09-07 23:00:00 11.9 3 Noroeste 17 Norte 0 -- -- 66
2019-09-07 22:00:00 13.4 5 Norte 21 Norte 0 -- -- 63
2019-09-07 21:00:00 14.6 12 Norte 22 Norte 0 -- -- 58
2019-09-07 20:00:00 16.3 10 Norte 26 Noroeste 0 -- -- 46
2019-09-07 19:00:00 17.6 15 Noroeste 27 Noroeste 0 -- -- 39
2019-09-07 18:00:00 18.4 15 Norte 28 Nordeste 0 -- -- 39
2019-09-07 17:00:00 18.5 15 Norte 29 Noroeste 0 -- -- 38
2019-09-07 16:00:00 18.5 13 Norte 30 Norte 0 -- -- 38
2019-09-07 15:00:00 17.4 17 Noroeste 32 Norte 0 -- -- 38
2019-09-07 14:00:00 17 11 Nordeste 27 Nordeste 0 -- -- 38
2019-09-07 13:00:00 15.9 15 Nordeste 27 Nordeste 0 -- -- 40
2019-09-07 12:00:00 14.5 13 Nordeste 25 Norte 0 -- -- 46
2019-09-07 11:00:00 13.1 10 Norte 24 Norte 0 -- -- 49
2019-09-07 10:00:00 11.3 6 Norte 16 Norte 0 -- -- 56
2019-09-07 09:00:00 6.4 0 Calma 6 Sudeste 0 -- -- 82
2019-09-07 08:00:00 4.7 0 Calma 6 Sudoeste 0 -- -- 82
2019-09-07 07:00:00 5.5 2 Sur 11 Noroeste 0 -- -- 79
2019-09-07 06:00:00 5.8 0 Calma 7 Noroeste 0 -- -- 78
2019-09-07 05:00:00 6.9 9 Noroeste 20 Oeste 0 -- -- 77
2019-09-07 04:00:00 8.3 10 Oeste 21 Noroeste 0 -- -- 73
2019-09-07 03:00:00 8.2 6 Noroeste 14 Oeste 0 -- -- 73
2019-09-07 02:00:00 8.3 2 Norte 20 Noroeste 0 -- -- 72
2019-09-07 01:00:00 8.4 6 Noroeste 25 Oeste 0 -- -- 69
2019-09-07 00:00:00 8.9 12 Noroeste 23 Noroeste 0 -- -- 68
2019-09-06 23:00:00 9.4 9 Noroeste 25 Noroeste 0 -- -- 66
2019-09-06 22:00:00 10.4 12 Noroeste 24 Noroeste 0 -- -- 63
2019-09-06 21:00:00 11.9 8 Noroeste 23 Noroeste 0 -- -- 55
2019-09-06 20:00:00 13.8 6 Norte 27 Noroeste 0 -- -- 49
2019-09-06 19:00:00 15.5 14 Norte 37 Norte 0 -- -- 46
2019-09-06 18:00:00 16.6 17 Norte 33 Norte 0 -- -- 42
2019-09-06 17:00:00 16.9 17 Norte 39 Noroeste 0 -- -- 40
2019-09-06 16:00:00 17 17 Noroeste 36 Noroeste 0 -- -- 39
2019-09-06 15:00:00 16.4 15 Norte 35 Noroeste 0 -- -- 44
2019-09-06 14:00:00 15.5 14 Norte 35 Norte 0 -- -- 47
2019-09-06 13:00:00 14.6 16 Norte 34 Norte 0 -- -- 50
2019-09-06 12:00:00 13.7 13 Norte 33 Norte 0 -- -- 51
2019-09-06 11:00:00 11.4 17 Noroeste 32 Noroeste 0 -- -- 61
2019-09-06 10:00:00 10.6 10 Norte 28 Noroeste 0 -- -- 65
2019-09-06 09:00:00 10.1 10 Norte 22 Noroeste 0 -- -- 68
2019-09-06 08:00:00 8.3 3 Norte 17 Norte 0 -- -- 72
2019-09-06 07:00:00 8.4 5 Noroeste 26 Norte 0 -- -- 70
2019-09-06 06:00:00 8.7 10 Noroeste 27 Noroeste 0 -- -- 70
2019-09-06 05:00:00 9 9 Noroeste 33 Noroeste 0 -- -- 69
2019-09-06 04:00:00 9 9 Noroeste 21 Noroeste 0 -- -- 69
2019-09-06 03:00:00 9.4 7 Noroeste 30 Noroeste 0 -- -- 68
2019-09-06 02:00:00 9.4 4 Sur 36 Norte 0 -- -- 68
2019-09-06 01:00:00 9.4 8 Noroeste 28 Noroeste 0 -- -- 69
2019-09-06 00:00:00 9.4 18 Noroeste 30 Oeste 0 -- -- 67
2019-09-05 23:00:00 9.6 8 Oeste 32 Noroeste 0 -- -- 66
2019-09-05 22:00:00 10.5 8 Oeste 33 Noroeste 0 -- -- 68
2019-09-05 21:00:00 11.2 12 Noroeste 36 Norte 0 -- -- 68
2019-09-05 20:00:00 12.1 14 Norte 43 Noroeste 0 -- -- 62
2019-09-05 19:00:00 13 16 Noroeste 34 Noroeste 0 -- -- 63
2019-09-05 18:00:00 14.6 16 Norte 42 Noroeste 0 -- -- 60
2019-09-05 17:00:00 16.2 18 Norte 48 Noroeste 0 -- -- 49
2019-09-05 16:00:00 16 19 Norte 50 Noroeste 0 -- -- 46
2019-09-05 15:00:00 15.3 23 Norte 43 Noroeste 0 -- -- 47
2019-09-05 14:00:00 15.3 21 Norte 39 Oeste 0 -- -- 47
2019-09-05 13:00:00 13.6 13 Norte 38 Norte 0 -- -- 55
2019-09-05 12:00:00 13.4 18 Noroeste 36 Noroeste 0 -- -- 60
2019-09-05 11:00:00 12.4 19 Noroeste 37 Noroeste 0 -- -- 61
2019-09-05 10:00:00 11.7 14 Norte 34 Norte 0 -- -- 69
2019-09-05 09:00:00 10.7 16 Norte 36 Norte 0 -- -- 77
2019-09-05 08:00:00 10.7 15 Norte 42 Norte 0.2 -- -- 87
2019-09-05 07:00:00 12 8 Norte 27 Norte 0 -- -- 79
2019-09-05 06:00:00 12.3 11 Norte 27 Noroeste 0 -- -- 78
2019-09-05 05:00:00 12.8 9 Noroeste 27 Noroeste 0 -- -- 73
2019-09-05 04:00:00 11.1 12 Noroeste 22 Noroeste 0 -- -- 71
2019-09-05 03:00:00 11.1 4 Noroeste 33 Noroeste 0 -- -- 63
2019-09-05 02:00:00 11.5 16 Noroeste 28 Noroeste 0 -- -- 70
2019-09-05 01:00:00 12.3 11 Norte 27 Norte 0 -- -- 66
2019-09-05 00:00:00 12.9 9 Norte 20 Norte 0 -- -- 69
2019-09-04 23:00:00 14 9 Noroeste 30 Noroeste 0 -- -- 64
2019-09-04 22:00:00 14.7 11 Noroeste 28 Noroeste 0 -- -- 65
2019-09-04 21:00:00 15.7 8 Norte 33 Norte 0 -- -- 63
2019-09-04 20:00:00 17.6 9 Norte 27 Norte 0 -- -- 57
2019-09-04 19:00:00 20 15 Norte 35 Norte 0 -- -- 50
2019-09-04 18:00:00 21.9 18 Norte 31 Nordeste 0 -- -- 44
2019-09-04 17:00:00 22.6 20 Noroeste 35 Norte 0 -- -- 36
2019-09-04 16:00:00 23.7 14 Norte 28 Nordeste 0 -- -- 30
2019-09-04 15:00:00 24.4 12 Norte 33 Nordeste 0 -- -- 24
2019-09-04 14:00:00 24 17 Nordeste 30 Nordeste 0 -- -- 22
2019-09-04 13:00:00 23.7 15 Nordeste 24 Nordeste 0 -- -- 26
2019-09-04 12:00:00 23.1 11 Nordeste 18 Nordeste 0 -- -- 29
2019-09-04 11:00:00 20.6 6 Nordeste 10 Nordeste 0 -- -- 37
2019-09-04 10:00:00 14.2 0 Calma 4 Este 0 -- -- 62
2019-09-04 09:00:00 8.1 0 Calma 4 Sudeste 0 -- -- 82
2019-09-04 08:00:00 5.4 0 Calma 3 Sudoeste 0 -- -- 82
2019-09-04 07:00:00 5.7 3 Sur 5 Sudeste 0 -- -- 81
2019-09-04 06:00:00 6 2 Sur 6 Sudeste 0 -- -- 81
2019-09-04 05:00:00 6.2 0 Calma 4 Sudeste 0 -- -- 79
2019-09-04 04:00:00 6.7 0 Calma 4 Sur 0 -- -- 79
2019-09-04 03:00:00 7.5 0 Calma 5 Oeste 0 -- -- 76
2019-09-04 02:00:00 8.4 0 Calma 4 Sudoeste 0 -- -- 73
2019-09-04 01:00:00 9.8 0 Calma 5 Sur 0 -- -- 69
2019-09-04 00:00:00 11.2 3 Sur 5 Sur 0 -- -- 64
2019-09-03 23:00:00 13 0 Calma 6 Oeste 0 -- -- 58
2019-09-03 22:00:00 15.9 0 Calma 10 Nordeste 0 -- -- 50
2019-09-03 21:00:00 20 2 Nordeste 12 Nordeste 0 -- -- 38
2019-09-03 20:00:00 22 7 Nordeste 15 Este 0 -- -- 36
2019-09-03 19:00:00 23.8 9 Nordeste 19 Nordeste 0 -- -- 34
2019-09-03 18:00:00 25 8 Nordeste 24 Nordeste 0 -- -- 32
2019-09-03 17:00:00 24.7 12 Nordeste 19 Nordeste 0 -- -- 31
2019-09-03 16:00:00 25 9 Nordeste 17 Este 0 -- -- 29
2019-09-03 15:00:00 24.1 9 Nordeste 18 Nordeste 0 -- -- 31
2019-09-03 14:00:00 22.8 11 Nordeste 18 Nordeste 0 -- -- 33
2019-09-03 13:00:00 21.3 10 Nordeste 18 Norte 0 -- -- 34
2019-09-03 12:00:00 19.6 6 Norte 15 Nordeste 0 -- -- 37
2019-09-03 11:00:00 16.1 0 Calma 6 Sudeste 0 -- -- 47
2019-09-03 10:00:00 11.5 3 Este 5 Este 0 -- -- 62
2019-09-03 09:00:00 6 0 Calma 4 Sur 0 -- -- 84
2019-09-03 08:00:00 3.6 0 Calma 3 Sudeste 0 -- -- 83
2019-09-03 07:00:00 4.6 2 Sudoeste 9 Sur 0 -- -- 82
2019-09-03 06:00:00 6.2 0 Calma 16 Oeste 0 -- -- 80
2019-09-03 05:00:00 7 3 Oeste 13 Noroeste 0 -- -- 81
2019-09-03 04:00:00 7.5 2 Este 8 Norte 0 -- -- 80
2019-09-03 03:00:00 8.5 4 Oeste 22 Oeste 0 -- -- 78
2019-09-03 02:00:00 8.9 9 Noroeste 16 Oeste 0 -- -- 76
2019-09-03 01:00:00 9.8 3 Noroeste 14 Noroeste 0 -- -- 72
2019-09-03 00:00:00 11.6 7 Noroeste 17 Nordeste 0 -- -- 66
2019-09-02 23:00:00 12.2 5 Norte 30 Nordeste 0 -- -- 64
2019-09-02 22:00:00 13.4 8 Norte 19 Norte 0 -- -- 62
2019-09-02 21:00:00 14.8 12 Norte 26 Norte 0 -- -- 59
2019-09-02 20:00:00 16.6 10 Norte 34 Noroeste 0 -- -- 51
2019-09-02 19:00:00 18 15 Noroeste 30 Noroeste 0 -- -- 47
2019-09-02 18:00:00 19 15 Norte 30 Noroeste 0 -- -- 44
2019-09-02 17:00:00 19.7 14 Norte 31 Noroeste 0 -- -- 40
2019-09-02 16:00:00 19.6 12 Norte 30 Norte 0 -- -- 40
2019-09-02 15:00:00 18.6 15 Norte 30 Nordeste 0 -- -- 43
2019-09-02 14:00:00 17.1 14 Nordeste 27 Nordeste 0 -- -- 47
2019-09-02 13:00:00 15.8 12 Nordeste 28 Noroeste 0 -- -- 50
2019-09-02 12:00:00 14.8 9 Norte 20 Noroeste 0 -- -- 57
2019-09-02 11:00:00 12.2 13 Norte 26 Norte 0 -- -- 67
2019-09-02 10:00:00 11.5 8 Noroeste 27 Noroeste 0 -- -- 74
2019-09-02 09:00:00 10.8 10 Norte 22 Noroeste 0 -- -- 78
2019-09-02 08:00:00 10.3 10 Nordeste 19 Nordeste 0 -- -- 81
2019-09-02 07:00:00 10.9 0 Calma 18 Noroeste 0 -- -- 82
2019-09-02 06:00:00 11.2 13 Norte 30 Norte 0 -- -- 82
2019-09-02 05:00:00 10.9 2 Norte 7 Sudeste 0 -- -- 81
2019-09-02 04:00:00 12.1 3 Sudoeste 17 Noroeste 0 -- -- 80
2019-09-02 03:00:00 12.6 12 Noroeste 26 Noroeste 0 -- -- 81
2019-09-02 02:00:00 13.5 9 Noroeste 21 Noroeste 0 -- -- 81
2019-09-02 01:00:00 14 8 Norte 27 Noroeste 0 -- -- 79
2019-09-02 00:00:00 14.4 11 Norte 27 Norte 0 -- -- 79
2019-09-01 23:00:00 14.9 9 Norte 28 Nordeste 0 -- -- 77
2019-09-01 22:00:00 15.8 13 Norte 30 Norte 0 -- -- 72
2019-09-01 21:00:00 16.2 13 Norte 23 Oeste 0 -- -- 72
2019-09-01 20:00:00 16.6 9 Norte 28 Nordeste 0 -- -- 71
2019-09-01 19:00:00 17.1 13 Norte 25 Noroeste 0 -- -- 70
2019-09-01 18:00:00 18.7 13 Norte 25 Norte 0 -- -- 65
2019-09-01 17:00:00 18.8 10 Norte 26 Norte 0 -- -- 65
2019-09-01 16:00:00 18.6 12 Norte 27 Nordeste 0 -- -- 66
2019-09-01 15:00:00 19.5 17 Nordeste 28 Nordeste 0 -- -- 65
2019-09-01 14:00:00 19.4 15 Nordeste 27 Nordeste 0 -- -- 67
2019-09-01 13:00:00 19.9 12 Nordeste 23 Nordeste 0 -- -- 66
2019-09-01 12:00:00 19.5 10 Nordeste 15 Nordeste 0 -- -- 68
2019-09-01 11:00:00 17.6 3 Oeste 9 Noroeste 0 -- -- 76
2019-09-01 10:00:00 15.9 3 Sudoeste 5 Sudoeste 0 -- -- 84
2019-09-01 09:00:00 14.5 0 Calma 6 Oeste 0 -- -- 89
2019-09-01 08:00:00 13.8 2 Oeste 5 Sudeste 0 -- -- 89
2019-09-01 07:00:00 13.5 3 Este 5 Este 0 -- -- 88
2019-09-01 06:00:00 13.2 0 Calma 6 Sur 0 -- -- 86
2019-09-01 05:00:00 12.3 0 Calma 9 Sur 0 -- -- 86
2019-09-01 04:00:00 12.8 0 Calma 4 Sudoeste 0 -- -- 83
2019-09-01 03:00:00 13.5 0 Calma 8 Sudoeste 0 -- -- 82
2019-09-01 02:00:00 14 2 Sudeste 8 Este 0 -- -- 79
2019-09-01 01:00:00 15.6 0 Calma 4 Este 0 -- -- 76
2019-09-01 00:00:00 17.9 2 Norte 8 Norte 0 -- -- 70
2019-08-31 23:00:00 19.8 6 Nordeste 22 Nordeste 0 -- -- 65
2019-08-31 22:00:00 21.2 18 Nordeste 27 Nordeste 0 -- -- 59
2019-08-31 21:00:00 22.1 3 Sudeste 8 Sudoeste 0 -- -- 57
2019-08-31 20:00:00 24.6 5 Sur 14 Sudeste 0 -- -- 43
2019-08-31 19:00:00 26.3 11 Sudeste 21 Sudeste 0 -- -- 39
2019-08-31 18:00:00 27.9 5 Sudeste 17 Sudeste 0 -- -- 32
2019-08-31 17:00:00 25.1 2 Oeste 40 Oeste 0 -- -- 38
2019-08-31 16:00:00 24 22 Oeste 38 Oeste 0 -- -- 41
2019-08-31 15:00:00 26.1 12 Nordeste 24 Norte 0 -- -- 36
2019-08-31 14:00:00 28.8 9 Sur 27 Sudoeste 0 -- -- 30
2019-08-31 13:00:00 28.9 10 Sur 23 Sudoeste 0 -- -- 29
2019-08-31 12:00:00 27.9 10 Sur 27 Sur 0 -- -- 30
2019-08-31 11:00:00 24.4 3 Norte 6 Norte 0 -- -- 41
2019-08-31 10:00:00 19 0 Calma 5 Noroeste 0 -- -- 58
2019-08-31 09:00:00 12.8 0 Calma 4 Este 0 -- -- 76
2019-08-31 08:00:00 11.2 3 Sudeste 8 Sur 0 -- -- 78
2019-08-31 07:00:00 11.6 0 Calma 5 Sur 0 -- -- 76
2019-08-31 06:00:00 12.4 0 Calma 4 Sudoeste 0 -- -- 74
2019-08-31 05:00:00 13.4 0 Calma 4 Norte 0 -- -- 70
2019-08-31 04:00:00 14.7 0 Calma 3 Este 0 -- -- 66
2019-08-31 03:00:00 16.3 0 Calma 8 Sudoeste 0 -- -- 61
2019-08-31 02:00:00 18.4 4 Este 26 Oeste 0 -- -- 55
2019-08-31 01:00:00 21 12 Oeste 24 Oeste 0 -- -- 46
2019-08-31 00:00:00 18.1 4 Oeste 10 Oeste 0 -- -- 54
2019-08-30 23:00:00 19 0 Calma 6 Sur 0 -- -- 53
2019-08-30 22:00:00 21.2 4 Sudoeste 15 Oeste 0 -- -- 45
2019-08-30 21:00:00 22.9 8 Sur 22 Sudoeste 0 -- -- 43
2019-08-30 20:00:00 25.4 9 Sudoeste 20 Sur 0 -- -- 37
2019-08-30 19:00:00 27.3 6 Noroeste 15 Noroeste 0 -- -- 33
2019-08-30 18:00:00 27.9 6 Nordeste 12 Nordeste 0 -- -- 35
2019-08-30 17:00:00 26.9 4 Nordeste 10 Norte 0 -- -- 37
2019-08-30 16:00:00 22.9 7 Noroeste 36 Noroeste 0 -- -- 46
2019-08-30 15:00:00 27.8 19 Norte 37 Norte 0 -- -- 40
2019-08-30 14:00:00 29 11 Sudoeste 21 Sudeste 0 -- -- 32
2019-08-30 13:00:00 27.6 9 Sur 20 Sur 0 -- -- 34
2019-08-30 12:00:00 26.2 10 Sur 20 Sur 0 -- -- 39
2019-08-30 11:00:00 24.2 8 Sur 15 Sudeste 0 -- -- 44
2019-08-30 10:00:00 17.4 0 Calma 4 Sudeste 0 -- -- 69
2019-08-30 09:00:00 12.2 0 Calma 4 Sudeste 0 -- -- 83
2019-08-30 08:00:00 10.3 0 Calma 4 Sur 0 -- -- 84
2019-08-30 07:00:00 10.5 0 Calma 4 Sudoeste 0 -- -- 84
2019-08-30 06:00:00 11.1 0 Calma 5 Sur 0 -- -- 83
2019-08-30 05:00:00 11.5 2 Sur 5 Sudoeste 0 -- -- 83
2019-08-30 04:00:00 12.1 0 Calma 5 Sur 0 -- -- 82
2019-08-30 03:00:00 13.1 0 Calma 3 Noroeste 0 -- -- 79
2019-08-30 02:00:00 13.6 0 Calma 8 Sudeste 0 -- -- 79
2019-08-30 01:00:00 14.7 0 Calma 13 Noroeste 0 -- -- 77
2019-08-30 00:00:00 15 3 Sur 8 Sur 0 -- -- 76
2019-08-29 23:00:00 16 3 Sur 7 Sur 0 -- -- 74
2019-08-29 22:00:00 18.5 0 Calma 6 Noroeste 0 -- -- 67
2019-08-29 21:00:00 20.7 2 Sudeste 6 Sudoeste 0 -- -- 64
2019-08-29 20:00:00 21.2 4 Sudoeste 10 Sudoeste 0 -- -- 65
2019-08-29 19:00:00 20.7 0 Calma 22 Oeste 0 -- -- 62
2019-08-29 18:00:00 20.3 9 Sudoeste 28 Oeste 0 -- -- 64
2019-08-29 17:00:00 21 8 Sudeste 34 Nordeste 0.4 -- -- 61
2019-08-29 16:00:00 26.4 16 Norte 33 Norte 0 -- -- 47
2019-08-29 15:00:00 29.5 10 Sur 24 Sur 0 -- -- 32
2019-08-29 14:00:00 28.4 10 Sur 27 Sur 0 -- -- 35
2019-08-29 13:00:00 26.8 10 Sur 27 Sur 0 -- -- 39
2019-08-29 12:00:00 24.9 9 Sur 17 Sudoeste 0 -- -- 44
2019-08-29 11:00:00 22.9 3 Sur 9 Este 0 -- -- 51
2019-08-29 10:00:00 17.1 0 Calma 5 Este 0 -- -- 73
2019-08-29 09:00:00 12.4 0 Calma 3 Sudeste 0 -- -- 86
2019-08-29 08:00:00 10.4 0 Calma 5 Sur 0 -- -- 86
2019-08-29 07:00:00 10.7 0 Calma 4 Sur 0 -- -- 85
2019-08-29 06:00:00 11 2 Sur 4 Sur 0 -- -- 84
2019-08-29 05:00:00 11.7 0 Calma 3 Sudoeste 0 -- -- 83
2019-08-29 04:00:00 12.4 2 Sur 5 Sudoeste 0 -- -- 83
2019-08-29 03:00:00 12.9 0 Calma 4 Sur 0 -- -- 82
2019-08-29 02:00:00 13.7 2 Sur 7 Sudoeste 0 -- -- 80
2019-08-29 01:00:00 14.6 0 Calma 6 Sudeste 0 -- -- 79
2019-08-29 00:00:00 15.6 0 Calma 6 Nordeste 0 -- -- 75
2019-08-28 23:00:00 16.9 3 Sur 5 Sur 0 -- -- 71
2019-08-28 22:00:00 19.1 0 Calma 5 Oeste 0 -- -- 63
2019-08-28 21:00:00 21.9 0 Calma 13 Nordeste 0 -- -- 53
2019-08-28 20:00:00 23.7 7 Este 14 Nordeste 0 -- -- 48
2019-08-28 19:00:00 24.7 8 Este 20 Este 0 -- -- 46
2019-08-28 18:00:00 25.7 7 Nordeste 21 Este 0 -- -- 44
2019-08-28 17:00:00 26 8 Nordeste 20 Nordeste 0 -- -- 45
2019-08-28 16:00:00 24.8 14 Norte 23 Nordeste 0 -- -- 48
2019-08-28 15:00:00 24.9 13 Nordeste 22 Nordeste 0 -- -- 46
2019-08-28 14:00:00 25.6 7 Noroeste 20 Norte 0 -- -- 40
2019-08-28 13:00:00 24.5 11 Nordeste 19 Nordeste 0 -- -- 41
2019-08-28 12:00:00 23.1 8 Nordeste 19 Este 0 -- -- 47
2019-08-28 11:00:00 20.8 3 Este 9 Este 0 -- -- 57
2019-08-28 10:00:00 15.5 0 Calma 2 Sudeste 0 -- -- 80
2019-08-28 09:00:00 11 0 Calma 3 Sur 0 -- -- 89
2019-08-28 08:00:00 8.6 0 Calma 4 Sudoeste 0 -- -- 88
2019-08-28 07:00:00 9 2 Sudeste 4 Sur 0 -- -- 88
2019-08-28 06:00:00 9.4 0 Calma 3 Sur 0 -- -- 88
2019-08-28 05:00:00 9.9 3 Sur 5 Sur 0 -- -- 87
2019-08-28 04:00:00 10.3 0 Calma 2 Sudoeste 0 -- -- 87
2019-08-28 03:00:00 10.8 0 Calma 4 Sudoeste 0 -- -- 86
2019-08-28 02:00:00 11.4 0 Calma 4 Este 0 -- -- 85
2019-08-28 01:00:00 12.1 0 Calma 3 Sudeste 0 -- -- 83
2019-08-28 00:00:00 13.3 2 Sur 4 Sur 0 -- -- 81
2019-08-27 23:00:00 15 0 Calma 4 Sur 0 -- -- 75
2019-08-27 22:00:00 17.4 0 Calma 9 Nordeste 0 -- -- 67
2019-08-27 21:00:00 19.1 6 Nordeste 13 Nordeste 0 -- -- 62
2019-08-27 20:00:00 20.4 9 Nordeste 12 Nordeste 0 -- -- 54
2019-08-27 19:00:00 21.1 6 Norte 22 Nordeste 0 -- -- 54
2019-08-27 18:00:00 22.5 5 Este 16 Este 0 -- -- 51
2019-08-27 17:00:00 20.4 8 Nordeste 24 Este 0 -- -- 58
2019-08-27 16:00:00 22.6 5 Este 18 Este 0 -- -- 49
2019-08-27 15:00:00 20 8 Nordeste 19 Este 0 -- -- 61
2019-08-27 14:00:00 19.5 13 Este 20 Este 0 -- -- 59
2019-08-27 13:00:00 20.3 8 Nordeste 15 Nordeste 0 -- -- 56
2019-08-27 12:00:00 18.6 6 Nordeste 15 Nordeste 0 -- -- 60
2019-08-27 11:00:00 15.7 9 Nordeste 16 Norte 0 -- -- 77
2019-08-27 10:00:00 14.1 0 Calma 6 Noroeste 0 -- -- 86
2019-08-27 09:00:00 12.7 0 Calma 5 Sur 0 -- -- 88
2019-08-27 08:00:00 11.8 5 Sur 10 Sudeste 0 -- -- 88
2019-08-27 07:00:00 11.8 2 Sudeste 6 Sur 0 -- -- 88
2019-08-27 06:00:00 11.4 0 Calma 5 Sur 0 -- -- 88
2019-08-27 05:00:00 11.7 2 Sudeste 7 Sudoeste 0 -- -- 87
2019-08-27 04:00:00 12.6 2 Sudoeste 5 Oeste 0 -- -- 85
2019-08-27 03:00:00 13.5 2 Sur 9 Este 0 -- -- 85
2019-08-27 02:00:00 13.4 5 Sudeste 30 Noroeste 0.6 -- -- 84
2019-08-27 01:00:00 14.2 10 Sudoeste 24 Oeste 0 -- -- 83
2019-08-27 00:00:00 14.3 7 Oeste 17 Noroeste 1.6 -- -- 82
2019-08-26 23:00:00 14.5 4 Oeste 22 Oeste 0 -- -- 79
2019-08-26 22:00:00 15.5 6 Este 44 Oeste 0.2 -- -- 75
2019-08-26 21:00:00 16.8 14 Noroeste 29 Norte 0 -- -- 63
2019-08-26 20:00:00 22 12 Nordeste 29 Este 0 -- -- 55
2019-08-26 19:00:00 22.8 12 Este 32 Este 0 -- -- 49
2019-08-26 18:00:00 24 14 Este 27 Sudeste 0 -- -- 43
2019-08-26 17:00:00 25.8 14 Este 32 Este 0 -- -- 38
2019-08-26 16:00:00 26.6 13 Sudeste 29 Sudeste 0 -- -- 32
2019-08-26 15:00:00 24.6 15 Este 34 Este 0 -- -- 40
2019-08-26 14:00:00 24.7 13 Sudeste 27 Sudeste 0 -- -- 37
2019-08-26 13:00:00 24.7 10 Nordeste 18 Este 0 -- -- 35
2019-08-26 12:00:00 23.3 5 Este 13 Sudeste 0 -- -- 35
2019-08-26 11:00:00 20.8 3 Noroeste 9 Sudoeste 0 -- -- 41
2019-08-26 10:00:00 17.5 0 Calma 5 Noroeste 0 -- -- 51
2019-08-26 09:00:00 12.7 0 Calma 4 Sur 0 -- -- 72
2019-08-26 08:00:00 11.9 0 Calma 3 Oeste 0 -- -- 73
2019-08-26 07:00:00 12.3 0 Calma -- -- 0 -- -- 70
2019-08-26 06:00:00 13.5 0 Calma 3 Este 0 -- -- 66
2019-08-26 05:00:00 15.5 0 Calma 5 Este 0 -- -- 61
2019-08-26 04:00:00 18.4 0 Calma 16 Nordeste 0 -- -- 53
2019-08-26 03:00:00 19.1 3 Nordeste 10 Nordeste 0 -- -- 51
2019-08-26 02:00:00 18.5 2 Sur 5 Sur 0 -- -- 53
2019-08-26 01:00:00 18.6 2 Sudeste 6 Sudeste 0 -- -- 52
2019-08-26 00:00:00 21.3 0 Calma 17 Norte 0 -- -- 45
2019-08-25 23:00:00 22.3 6 Nordeste 13 Nordeste 0 -- -- 42
2019-08-25 22:00:00 23.2 7 Nordeste 22 Nordeste 0 -- -- 38
2019-08-25 21:00:00 24.1 8 Este 33 Sudeste 0 -- -- 34
2019-08-25 20:00:00 25.8 15 Este 32 Este 0 -- -- 31
2019-08-25 19:00:00 27.3 16 Nordeste 36 Este 0 -- -- 29
2019-08-25 18:00:00 28 18 Este 35 Nordeste 0 -- -- 30
2019-08-25 17:00:00 28.3 14 Este 39 Este 0 -- -- 32
2019-08-25 16:00:00 27.2 17 Nordeste 32 Nordeste 0 -- -- 36
2019-08-25 15:00:00 28.3 12 Nordeste 27 Nordeste 0 -- -- 36
2019-08-25 14:00:00 29.1 12 Sudeste 31 Sudeste 0 -- -- 27
2019-08-25 13:00:00 27.9 13 Sudeste 23 Sudoeste 0 -- -- 30
2019-08-25 12:00:00 26.3 10 Sur 25 Sur 0 -- -- 33
2019-08-25 11:00:00 24.3 13 Sur 24 Sur 0 -- -- 37
2019-08-25 10:00:00 20.8 5 Sur 16 Sudeste 0 -- -- 45
2019-08-25 09:00:00 12.7 0 Calma 4 Sudeste 0 -- -- 64
2019-08-25 08:00:00 9.1 0 Calma 5 Sudeste 0 -- -- 70
2019-08-25 07:00:00 9 0 Calma 4 Sur 0 -- -- 69
2019-08-25 06:00:00 9.3 0 Calma 5 Sudoeste 0 -- -- 68
2019-08-25 05:00:00 9.5 0 Calma 4 Sur 0 -- -- 66
2019-08-25 04:00:00 10.5 0 Calma 4 Este 0 -- -- 63
2019-08-25 03:00:00 11.3 0 Calma 6 Sudoeste 0 -- -- 60
2019-08-25 02:00:00 12 2 Sudeste 4 Sudeste 0 -- -- 57
2019-08-25 01:00:00 13.6 0 Calma 6 Sudoeste 0 -- -- 52
2019-08-25 00:00:00 15 0 Calma 4 Sur 0 -- -- 48
2019-08-24 23:00:00 17 0 Calma 5 Oeste 0 -- -- 44
2019-08-24 22:00:00 20.4 2 Sudeste 17 Este 0 -- -- 37
2019-08-24 21:00:00 24.1 6 Sudeste 23 Este 0 -- -- 29
2019-08-24 20:00:00 25.9 9 Este 27 Nordeste 0 -- -- 31
2019-08-24 19:00:00 27.3 12 Nordeste 31 Este 0 -- -- 30
2019-08-24 18:00:00 27.9 17 Nordeste 33 Nordeste 0 -- -- 31
2019-08-24 17:00:00 28 15 Nordeste 36 Nordeste 0 -- -- 34
2019-08-24 16:00:00 27.1 15 Nordeste 33 Este 0 -- -- 35
2019-08-24 15:00:00 28 18 Nordeste 31 Nordeste 0 -- -- 35
2019-08-24 14:00:00 28.8 6 Sudeste 23 Sudeste 0 -- -- 28
2019-08-24 13:00:00 28 10 Sudeste 29 Este 0 -- -- 29
2019-08-24 12:00:00 26.9 10 Sudeste 22 Este 0 -- -- 31
2019-08-24 11:00:00 24.3 3 Nordeste 10 Nordeste 0 -- -- 36
2019-08-24 10:00:00 18.9 2 Sudeste 5 Sudeste 0 -- -- 50
2019-08-24 09:00:00 11.6 0 Calma 3 Este 0 -- -- 72
2019-08-24 08:00:00 8.4 0 Calma 5 Sudoeste 0 -- -- 78
2019-08-24 07:00:00 8.5 0 Calma 5 Sudoeste 0 -- -- 76
2019-08-24 06:00:00 9 0 Calma 3 Sur 0 -- -- 74
2019-08-24 05:00:00 9.4 0 Calma 4 Este 0 -- -- 73
2019-08-24 04:00:00 10.1 0 Calma 5 Sudoeste 0 -- -- 71
2019-08-24 03:00:00 11.3 3 Sudoeste 5 Sudoeste 0 -- -- 67
2019-08-24 02:00:00 12.1 0 Calma 5 Sudoeste 0 -- -- 67
2019-08-24 01:00:00 13.8 3 Sur 4 Sudoeste 0 -- -- 62
2019-08-24 00:00:00 15.1 2 Sudoeste 4 Sudeste 0 -- -- 57
2019-08-23 23:00:00 17.1 0 Calma 4 Norte 0 -- -- 51
2019-08-23 22:00:00 19.9 3 Oeste 12 Nordeste 0 -- -- 42
2019-08-23 21:00:00 23.2 5 Nordeste 19 Nordeste 0 -- -- 36
2019-08-23 20:00:00 24.7 9 Nordeste 24 Nordeste 0 -- -- 36
2019-08-23 19:00:00 26.3 9 Nordeste 30 Nordeste 0 -- -- 35
2019-08-23 18:00:00 26.3 18 Nordeste 34 Norte 0 -- -- 36
2019-08-23 17:00:00 26.6 18 Nordeste 33 Este 0 -- -- 37
2019-08-23 16:00:00 27.4 14 Nordeste 31 Nordeste 0 -- -- 34
2019-08-23 15:00:00 28.7 5 Sudeste 24 Sudeste 0 -- -- 27
2019-08-23 14:00:00 27.5 10 Sur 37 Sudeste 0 -- -- 27
2019-08-23 13:00:00 26.9 10 Sur 23 Sudoeste 0 -- -- 29
2019-08-23 12:00:00 25.4 8 Sur 23 Sur 0 -- -- 35
2019-08-23 11:00:00 23 15 Sur 29 Sur 0 -- -- 43
2019-08-23 10:00:00 20.2 13 Sur 27 Sur 0 -- -- 49
2019-08-23 09:00:00 10 2 Sudeste 4 Sudeste 0 -- -- 72
2019-08-23 08:00:00 5.8 0 Calma 4 Sudoeste 0 -- -- 79
2019-08-23 07:00:00 6.1 0 Calma 4 Sudoeste 0 -- -- 77
2019-08-23 06:00:00 6.4 0 Calma 5 Este 0 -- -- 77
2019-08-23 05:00:00 7.2 0 Calma 8 Sur 0 -- -- 75
2019-08-23 04:00:00 7.8 0 Calma 7 Sur 0 -- -- 73
2019-08-23 03:00:00 8.1 2 Este 6 Sur 0 -- -- 72
2019-08-23 02:00:00 9.1 2 Sur 6 Sur 0 -- -- 68
2019-08-23 01:00:00 10.9 0 Calma 3 Sudoeste 0 -- -- 61
2019-08-23 00:00:00 12.3 0 Calma 5 Sudoeste 0 -- -- 57
2019-08-22 23:00:00 14.3 2 Sur 6 Sur 0 -- -- 50
2019-08-22 22:00:00 17.7 0 Calma 12 Nordeste 0 -- -- 40
2019-08-22 21:00:00 21.6 7 Nordeste 16 Nordeste 0 -- -- 34
2019-08-22 20:00:00 23.6 9 Nordeste 20 Nordeste 0 -- -- 23
2019-08-22 19:00:00 25.2 11 Nordeste 22 Norte 0 -- -- 23
2019-08-22 18:00:00 25.7 11 Nordeste 27 Norte 0 -- -- 25
2019-08-22 17:00:00 25.6 12 Nordeste 24 Norte 0 -- -- 27
2019-08-22 16:00:00 25.4 13 Nordeste 23 Este 0 -- -- 29
2019-08-22 15:00:00 25 9 Este 19 Nordeste 0 -- -- 31
2019-08-22 14:00:00 23.3 11 Nordeste 21 Norte 0 -- -- 33
2019-08-22 13:00:00 22.4 12 Nordeste 22 Nordeste 0 -- -- 36
2019-08-22 12:00:00 20.9 12 Nordeste 18 Este 0 -- -- 35
2019-08-22 11:00:00 18.8 4 Este 9 Este 0 -- -- 38
2019-08-22 10:00:00 14.4 2 Este 4 Este 0 -- -- 62
2019-08-22 09:00:00 9.2 0 Calma 6 Sur 0 -- -- 82
2019-08-22 08:00:00 6 3 Sudeste 8 Sudoeste 0 -- -- 83
2019-08-22 07:00:00 6.8 0 Calma 9 Sur 0 -- -- 83
2019-08-22 06:00:00 7.3 0 Calma 10 Sur 0 -- -- 85
2019-08-22 05:00:00 8.4 0 Calma 4 Oeste 0 -- -- 85
2019-08-22 04:00:00 9.7 2 Sudoeste 7 Sudoeste 0 -- -- 84
2019-08-22 03:00:00 11.1 3 Sur 6 Sur 0 -- -- 84
2019-08-22 02:00:00 12.5 0 Calma 10 Norte 0 -- -- 79
2019-08-22 01:00:00 15.3 5 Norte 17 Norte 0 -- -- 73
2019-08-22 00:00:00 16.2 5 Norte 17 Nordeste 0 -- -- 70
2019-08-21 23:00:00 17.2 10 Nordeste 19 Nordeste 0 -- -- 66
2019-08-21 22:00:00 18.1 9 Norte 18 Norte 0 -- -- 64
2019-08-21 21:00:00 19.7 6 Noroeste 21 Norte 0 -- -- 54
2019-08-21 20:00:00 20.9 12 Norte 26 Norte 0 -- -- 49
2019-08-21 19:00:00 21.1 12 Nordeste 21 Nordeste 0 -- -- 51
2019-08-21 18:00:00 22.3 13 Nordeste 21 Norte 0 -- -- 50
2019-08-21 17:00:00 22.1 7 Nordeste 20 Norte 0 -- -- 50
2019-08-21 16:00:00 21.5 10 Nordeste 26 Nordeste 0 -- -- 52
2019-08-21 15:00:00 21.5 13 Nordeste 27 Nordeste 0 -- -- 53
2019-08-21 14:00:00 22.4 12 Nordeste 21 Nordeste 0 -- -- 50
2019-08-21 13:00:00 22.9 5 Sur 20 Sudeste 0 -- -- 54
2019-08-21 12:00:00 21.1 4 Este 17 Sudeste 0 -- -- 55
2019-08-21 11:00:00 18.4 8 Este 15 Este 0 -- -- 60
2019-08-21 10:00:00 15.7 0 Calma -- -- 0 -- -- 67
2019-08-21 09:00:00 13 0 Calma -- -- 0 -- -- 79
2019-08-21 08:00:00 10.7 0 Calma -- -- 0 -- -- 85
2019-08-21 07:00:00 10.5 2 Sur 4 Sudeste 0 -- -- 86
2019-08-21 06:00:00 10.3 0 Calma 6 Noroeste 0 -- -- 85
2019-08-21 05:00:00 9.4 0 Calma 3 Este 0 -- -- 86
2019-08-21 04:00:00 8.7 0 Calma 2 Este 0 -- -- 87
2019-08-21 03:00:00 8.1 0 Calma 5 Sur 0 -- -- 86
2019-08-21 02:00:00 8.3 0 Calma 6 Sudeste 0 -- -- 86
2019-08-21 01:00:00 8.8 0 Calma 6 Este 0 -- -- 83
2019-08-21 00:00:00 10.3 0 Calma 9 Noroeste 0 -- -- 80